createdAt,value
2019-03-09T00:00:43.920Z,1.77
2019-03-09T00:03:14.258Z,2.07
2019-03-09T00:05:44.743Z,1.87
2019-03-09T00:08:15.131Z,1.60
2019-03-09T00:10:45.551Z,1.97
2019-03-09T00:13:16.074Z,2.60
2019-03-09T00:15:46.314Z,1.60
2019-03-09T00:18:16.810Z,1.87
2019-03-09T00:20:46.864Z,1.43
2019-03-09T00:23:34.787Z,1.60
2019-03-09T00:26:21.690Z,1.50
2019-03-09T00:29:05.643Z,2.23
2019-03-09T00:31:39.078Z,1.73
2019-03-09T00:34:08.916Z,1.90
2019-03-09T00:36:38.669Z,1.70
2019-03-09T00:39:08.678Z,2.43
2019-03-09T00:41:38.333Z,2.30
2019-03-09T00:44:08.721Z,1.70
2019-03-09T00:46:39.168Z,1.83
2019-03-09T00:49:11.213Z,1.80
2019-03-09T00:51:40.823Z,1.90
2019-03-09T00:54:11.223Z,2.17
2019-03-09T00:56:41.139Z,1.83
2019-03-09T00:59:10.903Z,1.60
2019-03-09T01:01:40.884Z,1.90
2019-03-09T01:04:11.439Z,2.30
2019-03-09T01:06:41.019Z,2.30
2019-03-09T01:09:12.303Z,2.10
2019-03-09T01:11:42.561Z,2.13
2019-03-09T01:14:12.203Z,1.63
2019-03-09T01:16:42.109Z,1.77
2019-03-09T01:19:11.847Z,2.00
2019-03-09T01:21:41.770Z,1.90
2019-03-09T01:24:11.707Z,1.50
2019-03-09T01:26:41.260Z,1.57
2019-03-09T01:29:11.564Z,1.77
2019-03-09T01:31:41.790Z,2.07
2019-03-09T01:34:11.821Z,5.30
2019-03-09T01:36:41.579Z,2.50
2019-03-09T01:39:12.423Z,1.70
2019-03-09T01:41:42.426Z,1.40
2019-03-09T01:44:12.755Z,2.40
2019-03-09T01:46:42.498Z,1.97
2019-03-09T01:49:12.457Z,1.40
2019-03-09T01:51:42.171Z,1.97
2019-03-09T01:54:12.353Z,1.80
2019-03-09T01:56:42.187Z,1.60
2019-03-09T01:59:14.607Z,2.10
2019-03-09T02:01:44.552Z,1.87
2019-03-09T02:04:15.029Z,1.83
2019-03-09T02:06:44.948Z,1.73
2019-03-09T02:09:14.610Z,2.50
2019-03-09T02:11:44.330Z,1.70
2019-03-09T02:14:15.213Z,2.00
2019-03-09T02:16:45.079Z,1.73
2019-03-09T02:19:15.111Z,1.77
2019-03-09T02:21:45.672Z,1.90
2019-03-09T02:24:15.962Z,2.00
2019-03-09T02:26:45.571Z,1.60
2019-03-09T02:29:15.276Z,1.60
2019-03-09T02:31:44.888Z,1.63
2019-03-09T02:34:15.211Z,1.50
2019-03-09T02:36:44.800Z,2.10
2019-03-09T02:39:37.923Z,2.10
2019-03-09T02:42:07.523Z,1.80
2019-03-09T02:44:37.747Z,2.00
2019-03-09T02:47:07.424Z,1.77
2019-03-09T02:49:37.154Z,1.80
2019-03-09T02:52:06.706Z,2.30
2019-03-09T02:54:37.087Z,1.53
2019-03-09T02:57:06.888Z,1.40
2019-03-09T02:59:36.551Z,1.27
2019-03-09T03:02:23.772Z,1.60
2019-03-09T03:04:54.130Z,1.60
2019-03-09T03:07:25.187Z,1.57
2019-03-09T03:09:54.811Z,1.63
2019-03-09T03:12:24.633Z,1.30
2019-03-09T03:14:54.361Z,1.50
2019-03-09T03:17:24.012Z,1.83
2019-03-09T03:19:53.762Z,1.17
2019-03-09T03:22:23.448Z,1.40
2019-03-09T03:24:53.409Z,1.20
2019-03-09T03:27:23.143Z,1.40
2019-03-09T03:29:53.107Z,2.37
2019-03-09T03:32:23.905Z,1.40
2019-03-09T03:34:54.042Z,1.67
2019-03-09T03:37:23.964Z,1.80
2019-03-09T03:39:54.229Z,1.77
2019-03-09T03:42:24.414Z,1.83
2019-03-09T03:44:54.556Z,1.60
2019-03-09T03:47:24.653Z,2.00
2019-03-09T03:49:55.233Z,2.20
2019-03-09T03:52:24.954Z,2.00
2019-03-09T03:54:55.329Z,2.20
2019-03-09T03:57:25.240Z,1.90
2019-03-09T03:59:54.779Z,1.60
2019-03-09T04:02:24.555Z,1.97
2019-03-09T04:04:54.436Z,1.90
2019-03-09T04:07:24.956Z,2.30
2019-03-09T04:09:55.060Z,1.93
2019-03-09T04:12:24.691Z,1.97
2019-03-09T04:14:54.679Z,2.10
2019-03-09T04:17:24.398Z,2.20
2019-03-09T04:19:53.987Z,2.40
2019-03-09T04:22:23.534Z,2.00
2019-03-09T04:24:53.522Z,2.20
2019-03-09T04:27:23.153Z,2.13
2019-03-09T04:29:53.308Z,2.40
2019-03-09T04:32:22.926Z,2.10
2019-03-09T04:34:53.312Z,2.07
2019-03-09T04:37:23.521Z,1.70
2019-03-09T04:39:53.444Z,2.57
2019-03-09T04:42:23.046Z,2.33
2019-03-09T04:44:52.742Z,1.90
2019-03-09T04:47:22.589Z,2.30
2019-03-09T04:49:54.224Z,2.20
2019-03-09T04:52:23.819Z,2.17
2019-03-09T04:54:53.532Z,2.80
2019-03-09T04:57:23.108Z,2.43
2019-03-09T04:59:52.918Z,2.20
2019-03-09T05:02:22.524Z,2.37
2019-03-09T05:04:52.999Z,2.77
2019-03-09T05:07:49.341Z,3.67
2019-03-09T05:10:45.390Z,2.20
2019-03-09T05:13:39.947Z,2.87
2019-03-09T05:16:10.114Z,3.00
2019-03-09T05:18:39.756Z,2.37
2019-03-09T05:21:09.492Z,2.57
2019-03-09T05:23:40.043Z,2.60
2019-03-09T05:26:09.726Z,2.90
2019-03-09T05:28:40.076Z,2.70
2019-03-09T05:31:09.670Z,2.23
2019-03-09T05:33:40.166Z,2.80
2019-03-09T05:36:09.772Z,2.80
2019-03-09T05:38:39.403Z,3.57
2019-03-09T05:41:09.083Z,3.30
2019-03-09T05:43:38.715Z,4.10
2019-03-09T05:46:08.695Z,4.20
2019-03-09T05:48:38.364Z,4.50
2019-03-09T05:51:08.267Z,4.80
2019-03-09T05:53:37.981Z,5.13
2019-03-09T05:56:07.940Z,4.87
2019-03-09T05:58:37.490Z,4.50
2019-03-09T06:01:07.207Z,4.67
2019-03-09T06:03:37.541Z,4.30
2019-03-09T06:06:14.922Z,4.10
2019-03-09T06:08:44.756Z,4.13
2019-03-09T06:11:14.416Z,4.13
2019-03-09T06:13:44.798Z,4.07
2019-03-09T06:16:14.504Z,4.10
2019-03-09T06:18:44.191Z,3.60
2019-03-09T06:21:13.902Z,3.40
2019-03-09T06:23:44.124Z,3.37
2019-03-09T06:26:13.804Z,2.87
2019-03-09T06:28:43.740Z,2.83
2019-03-09T06:31:13.460Z,3.00
2019-03-09T06:33:45.522Z,3.00
2019-03-09T06:36:36.011Z,2.70
2019-03-09T06:39:38.082Z,2.80
2019-03-09T06:42:24.831Z,3.00
2019-03-09T06:44:54.917Z,2.93
2019-03-09T06:47:24.771Z,2.33
2019-03-09T06:49:54.443Z,2.63
2019-03-09T06:52:24.222Z,2.20
2019-03-09T06:54:53.854Z,2.87
2019-03-09T06:57:23.658Z,2.20
2019-03-09T06:59:54.204Z,2.00
2019-03-09T07:02:24.843Z,2.40
2019-03-09T07:04:54.429Z,2.43
2019-03-09T07:07:24.059Z,2.53
2019-03-09T07:09:53.803Z,2.83
2019-03-09T07:12:23.540Z,2.50
2019-03-09T07:15:25.066Z,2.40
2019-03-09T07:17:59.999Z,2.03
2019-03-09T07:20:30.314Z,3.00
2019-03-09T07:22:59.928Z,2.47
2019-03-09T07:25:29.601Z,2.53
2019-03-09T07:28:11.573Z,3.33
2019-03-09T07:30:41.350Z,2.83
2019-03-09T07:33:11.759Z,2.80
2019-03-09T07:38:17.942Z,3.40
2019-03-09T07:40:47.655Z,3.40
2019-03-09T07:43:18.083Z,3.10
2019-03-09T07:45:47.963Z,3.20
2019-03-09T07:48:18.370Z,2.60
2019-03-09T07:50:48.068Z,3.17
2019-03-09T07:53:18.015Z,2.77
2019-03-09T07:55:47.756Z,2.87
2019-03-09T07:58:17.351Z,2.30
2019-03-09T08:00:46.961Z,2.23
2019-03-09T08:03:17.409Z,2.40
2019-03-09T08:05:47.584Z,2.73
2019-03-09T08:08:18.319Z,2.63
2019-03-09T08:10:48.037Z,2.60
2019-03-09T08:13:18.412Z,2.63
2019-03-09T08:15:48.114Z,2.40
2019-03-09T08:18:18.565Z,3.30
2019-03-09T08:20:48.208Z,2.40
2019-03-09T08:23:18.603Z,2.70
2019-03-09T08:25:48.237Z,2.67
2019-03-09T08:28:18.711Z,2.90
2019-03-09T08:30:48.907Z,2.83
2019-03-09T08:33:21.985Z,2.83
2019-03-09T08:35:51.969Z,2.20
2019-03-09T08:38:21.804Z,2.57
2019-03-09T08:40:51.615Z,2.40
2019-03-09T08:43:21.586Z,2.50
2019-03-09T08:45:51.292Z,2.27
2019-03-09T08:48:21.226Z,2.07
2019-03-09T08:50:50.981Z,2.00
2019-03-09T08:53:20.701Z,2.40
2019-03-09T08:55:50.411Z,2.20
2019-03-09T08:58:20.363Z,2.37
2019-03-09T09:00:50.427Z,2.00
2019-03-09T09:03:20.735Z,2.20
2019-03-09T09:05:50.730Z,1.60
2019-03-09T09:08:21.176Z,2.07
2019-03-09T09:10:50.958Z,1.50
2019-03-09T09:13:23.832Z,2.10
2019-03-09T09:15:54.061Z,1.97
2019-03-09T09:18:24.270Z,2.30
2019-03-09T09:20:54.366Z,1.57
2019-03-09T09:23:24.719Z,1.97
2019-03-09T09:25:54.488Z,1.67
2019-03-09T09:28:24.233Z,1.87
2019-03-09T09:30:54.369Z,2.10
2019-03-09T09:33:24.235Z,1.53
2019-03-09T09:35:54.009Z,1.63
2019-03-09T09:38:24.617Z,1.60
2019-03-09T09:40:54.687Z,1.40
2019-03-09T09:43:24.961Z,1.60
2019-03-09T09:45:54.893Z,1.80
2019-03-09T09:48:25.081Z,1.93
2019-03-09T09:50:54.971Z,1.50
2019-03-09T09:53:24.987Z,1.30
2019-03-09T09:55:54.971Z,1.67
2019-03-09T09:58:24.852Z,1.80
2019-03-09T10:00:54.940Z,1.70
2019-03-09T10:03:25.927Z,1.93
2019-03-09T10:05:56.034Z,1.60
2019-03-09T10:08:26.555Z,1.53
2019-03-09T10:10:56.889Z,1.83
2019-03-09T10:13:26.903Z,1.90
2019-03-09T10:15:56.671Z,1.67
2019-03-09T10:18:26.665Z,1.40
2019-03-09T10:20:56.507Z,1.40
2019-03-09T10:23:27.444Z,1.30
2019-03-09T10:25:58.704Z,1.43
2019-03-09T10:28:29.252Z,1.40
2019-03-09T10:30:59.276Z,1.50
2019-03-09T10:33:30.090Z,1.20
2019-03-09T10:36:00.284Z,1.40
2019-03-09T10:38:30.659Z,1.47
2019-03-09T10:41:01.198Z,1.93
2019-03-09T10:43:31.593Z,1.97
2019-03-09T10:46:01.553Z,2.50
2019-03-09T10:48:31.902Z,1.77
2019-03-09T10:51:01.784Z,1.70
2019-03-09T10:53:32.595Z,1.60
2019-03-09T10:56:02.694Z,1.90
2019-03-09T10:58:32.634Z,2.20
2019-03-09T11:01:02.624Z,1.60
2019-03-09T11:03:33.062Z,1.47
2019-03-09T11:06:03.019Z,1.30
2019-03-09T11:08:33.415Z,1.80
2019-03-09T11:11:03.249Z,1.33
2019-03-09T11:13:33.050Z,1.87
2019-03-09T11:16:02.825Z,1.47
2019-03-09T11:18:32.418Z,2.10
2019-03-09T11:21:02.467Z,1.87
2019-03-09T11:23:34.372Z,1.80
2019-03-09T11:26:04.051Z,1.53
2019-03-09T11:28:33.995Z,1.87
2019-03-09T11:31:04.259Z,1.30
2019-03-09T11:33:34.079Z,1.90
2019-03-09T11:36:04.084Z,1.60
2019-03-09T11:38:34.109Z,2.00
2019-03-09T11:41:04.182Z,1.23
2019-03-09T11:43:34.531Z,1.33
2019-03-09T11:46:05.344Z,1.63
2019-03-09T11:48:35.406Z,1.70
2019-03-09T11:51:05.632Z,1.73
2019-03-09T11:53:35.922Z,1.40
2019-03-09T11:56:06.417Z,2.10
2019-03-09T11:58:38.129Z,1.30
2019-03-09T12:01:08.074Z,2.10
2019-03-09T12:03:38.779Z,1.83
2019-03-09T12:06:12.067Z,1.37
2019-03-09T12:08:42.631Z,1.97
2019-03-09T12:11:12.444Z,1.80
2019-03-09T12:13:42.603Z,1.30
2019-03-09T12:16:12.478Z,1.63
2019-03-09T12:18:42.710Z,1.70
2019-03-09T12:21:12.383Z,1.90
2019-03-09T12:23:42.196Z,1.80
2019-03-09T12:26:11.800Z,1.77
2019-03-09T12:28:41.796Z,1.97
2019-03-09T12:31:11.824Z,2.10
2019-03-09T12:33:41.791Z,1.97
2019-03-09T12:36:11.579Z,1.77
2019-03-09T12:38:41.282Z,1.57
2019-03-09T12:41:11.382Z,1.80
2019-03-09T12:43:41.604Z,1.80
2019-03-09T12:46:11.506Z,1.53
2019-03-09T12:48:41.031Z,1.73
2019-03-09T12:51:10.976Z,1.80
2019-03-09T12:53:41.985Z,1.80
2019-03-09T12:56:12.098Z,2.23
2019-03-09T12:58:41.953Z,1.60
2019-03-09T13:01:12.997Z,1.13
2019-03-09T13:03:43.624Z,1.60
2019-03-09T13:06:13.920Z,1.97
2019-03-09T13:08:43.902Z,1.57
2019-03-09T13:11:14.376Z,1.77
2019-03-09T13:13:44.311Z,2.03
2019-03-09T13:16:14.222Z,1.90
2019-03-09T13:18:44.223Z,1.80
2019-03-09T13:21:14.699Z,1.50
2019-03-09T13:23:44.992Z,1.37
2019-03-09T13:26:14.698Z,1.40
2019-03-09T13:28:44.675Z,1.40
2019-03-09T13:31:14.696Z,1.53
2019-03-09T13:33:44.516Z,1.90
2019-03-09T13:36:15.180Z,1.33
2019-03-09T13:38:44.953Z,1.60
2019-03-09T13:41:14.857Z,1.37
2019-03-09T13:43:44.660Z,1.63
2019-03-09T13:46:14.649Z,1.60
2019-03-09T13:48:44.638Z,1.73
2019-03-09T13:51:14.605Z,1.40
2019-03-09T13:53:44.655Z,1.50
2019-03-09T13:56:16.994Z,1.53
2019-03-09T13:58:46.921Z,1.80
2019-03-09T14:01:17.053Z,1.60
2019-03-09T14:03:48.107Z,2.30
2019-03-09T14:06:18.786Z,1.80
2019-03-09T14:08:48.733Z,2.13
2019-03-09T14:11:18.689Z,1.97
2019-03-09T14:13:48.872Z,1.50
2019-03-09T14:16:19.234Z,1.43
2019-03-09T14:18:50.668Z,1.70
2019-03-09T14:21:23.839Z,1.53
2019-03-09T14:23:54.292Z,2.03
2019-03-09T14:26:24.473Z,1.93
2019-03-09T14:28:54.457Z,2.10
2019-03-09T14:31:24.444Z,1.80
2019-03-09T14:33:55.612Z,1.80
2019-03-09T14:36:26.143Z,1.90
2019-03-09T14:38:56.321Z,1.90
2019-03-09T14:41:26.496Z,1.80
2019-03-09T14:43:57.102Z,2.07
2019-03-09T14:46:27.645Z,1.90
2019-03-09T14:48:57.664Z,1.50
2019-03-09T14:51:27.895Z,1.93
2019-03-09T14:53:58.103Z,1.70
2019-03-09T14:56:28.588Z,1.43
2019-03-09T14:58:58.780Z,2.30
2019-03-09T15:01:28.569Z,2.37
2019-03-09T15:03:58.607Z,2.57
2019-03-09T15:06:28.733Z,2.43
2019-03-09T15:08:58.897Z,2.10
2019-03-09T15:11:28.814Z,1.63
2019-03-09T15:13:59.367Z,2.20
2019-03-09T15:16:29.348Z,1.90
2019-03-09T15:18:59.463Z,1.90
2019-03-09T15:21:29.814Z,1.70
2019-03-09T15:23:59.706Z,1.97
2019-03-09T15:26:29.685Z,2.10
2019-03-09T15:28:59.470Z,1.67
2019-03-09T15:31:29.242Z,1.33
2019-03-09T15:33:59.210Z,1.80
2019-03-09T15:36:29.148Z,1.50
2019-03-09T15:38:59.756Z,1.67
2019-03-09T15:41:39.471Z,1.40
2019-03-09T15:44:10.327Z,1.80
2019-03-09T15:46:40.396Z,1.60
2019-03-09T15:49:10.353Z,1.60
2019-03-09T15:51:40.269Z,1.60
2019-03-09T15:54:11.076Z,2.13
2019-03-09T15:56:40.910Z,1.53
2019-03-09T15:59:11.359Z,1.93
2019-03-09T16:01:41.547Z,1.67
2019-03-09T16:04:11.490Z,2.00
2019-03-09T16:06:42.093Z,1.47
2019-03-09T16:09:12.083Z,1.80
2019-03-09T16:11:44.820Z,1.80
2019-03-09T16:14:13.643Z,1.30
2019-03-09T16:16:44.937Z,1.90
2019-03-09T16:19:14.929Z,3.00
2019-03-09T16:21:45.780Z,1.93
2019-03-09T16:24:15.928Z,2.17
2019-03-09T16:26:45.784Z,1.80
2019-03-09T16:29:15.741Z,1.60
2019-03-09T16:31:45.619Z,2.10
2019-03-09T16:34:15.955Z,1.30
2019-03-09T16:36:46.455Z,3.10
2019-03-09T16:39:16.231Z,2.07
2019-03-09T16:41:45.889Z,1.53
2019-03-09T16:44:16.355Z,1.83
2019-03-09T16:46:48.199Z,2.17
2019-03-09T16:49:18.578Z,2.00
2019-03-09T16:51:48.842Z,2.07
2019-03-09T16:54:19.194Z,1.70
2019-03-09T16:56:49.004Z,1.70
2019-03-09T16:59:19.290Z,1.77
2019-03-09T17:01:49.035Z,1.73
2019-03-09T17:04:19.442Z,1.60
2019-03-09T17:06:49.877Z,2.17
2019-03-09T17:09:20.364Z,1.40
2019-03-09T17:11:50.031Z,2.20
2019-03-09T17:14:20.407Z,1.40
2019-03-09T17:16:50.367Z,1.50
2019-03-09T17:19:21.741Z,1.60
2019-03-09T17:21:51.958Z,1.70
2019-03-09T17:24:22.315Z,1.07
2019-03-09T17:26:51.950Z,1.40
2019-03-09T17:29:22.390Z,1.30
2019-03-09T17:31:52.438Z,1.40
2019-03-09T17:34:23.013Z,1.40
2019-03-09T17:36:52.980Z,1.00
2019-03-09T17:39:22.847Z,1.60
2019-03-09T17:41:52.533Z,1.30
2019-03-09T17:44:22.975Z,1.10
2019-03-09T17:46:53.357Z,1.40
2019-03-09T17:49:23.705Z,1.20
2019-03-09T17:51:53.486Z,1.63
2019-03-09T17:54:24.020Z,1.30
2019-03-09T17:56:54.218Z,1.63
2019-03-09T17:59:24.628Z,1.33
2019-03-09T18:01:54.968Z,1.23
2019-03-09T18:04:25.546Z,1.10
2019-03-09T18:06:55.646Z,1.03
2019-03-09T18:09:25.895Z,1.03
2019-03-09T18:11:55.766Z,0.90
2019-03-09T18:14:26.813Z,1.17
2019-03-09T18:16:56.478Z,1.23
2019-03-09T18:19:27.208Z,1.10
2019-03-09T18:21:56.875Z,1.50
2019-03-09T18:24:27.054Z,1.30
2019-03-09T18:26:57.309Z,1.33
2019-03-09T18:29:27.195Z,1.20
2019-03-09T18:31:56.943Z,1.37
2019-03-09T18:34:26.643Z,1.53
2019-03-09T18:36:56.390Z,1.37
2019-03-09T18:39:26.176Z,1.30
2019-03-09T18:44:32.175Z,1.50
2019-03-09T18:47:05.115Z,1.60
2019-03-09T18:49:34.933Z,1.53
2019-03-09T18:52:04.708Z,1.60
2019-03-09T18:54:34.513Z,1.40
2019-03-09T18:57:04.255Z,0.93
2019-03-09T18:59:35.016Z,1.50
2019-03-09T19:02:04.916Z,1.47
2019-03-09T19:04:34.665Z,1.50
2019-03-09T19:07:05.163Z,1.40
2019-03-09T19:09:34.866Z,1.60
2019-03-09T19:12:04.677Z,1.20
2019-03-09T19:14:34.667Z,2.60
2019-03-09T19:17:04.417Z,1.40
2019-03-09T19:19:34.217Z,1.30
2019-03-09T19:22:04.008Z,1.53
2019-03-09T19:24:34.629Z,1.67
2019-03-09T19:27:04.373Z,1.90
2019-03-09T19:29:34.288Z,1.70
2019-03-09T19:32:04.107Z,1.70
2019-03-09T19:34:34.267Z,1.70
2019-03-09T19:37:13.573Z,1.83
2019-03-09T19:39:43.327Z,2.00
2019-03-09T19:42:13.704Z,2.40
2019-03-09T19:44:43.579Z,2.20
2019-03-09T19:47:13.484Z,3.00
2019-03-09T19:49:43.376Z,2.60
2019-03-09T19:52:13.221Z,2.80
2019-03-09T19:54:43.127Z,2.90
2019-03-09T19:57:13.062Z,2.53
2019-03-09T19:59:42.904Z,2.57
2019-03-09T20:02:12.745Z,2.00
2019-03-09T20:04:43.238Z,2.60
2019-03-09T20:07:13.081Z,2.60
2019-03-09T20:09:42.860Z,2.30
2019-03-09T20:12:13.740Z,2.73
2019-03-09T20:14:43.526Z,2.70
2019-03-09T20:17:13.371Z,2.60
2019-03-09T20:19:43.172Z,2.33
2019-03-09T20:22:12.948Z,2.13
2019-03-09T20:24:42.839Z,2.30
2019-03-09T20:27:12.702Z,2.30
2019-03-09T20:29:43.207Z,2.50
2019-03-09T20:32:13.115Z,3.23
2019-03-09T20:34:43.094Z,2.53
2019-03-09T20:37:12.855Z,2.67
2019-03-09T20:39:42.927Z,2.80
2019-03-09T20:42:12.659Z,2.37
2019-03-09T20:44:42.446Z,2.53
2019-03-09T20:47:12.339Z,2.90
2019-03-09T20:49:42.271Z,2.50
2019-03-09T20:52:12.126Z,2.63
2019-03-09T20:54:41.941Z,2.30
2019-03-09T20:57:12.108Z,2.07
2019-03-09T20:59:41.875Z,2.03
2019-03-09T21:02:11.695Z,1.57
2019-03-09T21:04:41.532Z,2.30
2019-03-09T21:07:11.308Z,1.97
2019-03-09T21:09:41.278Z,1.90
2019-03-09T21:12:10.981Z,1.90
2019-03-09T21:14:41.056Z,2.20
2019-03-09T21:17:10.870Z,1.93
2019-03-09T21:19:41.097Z,2.13
2019-03-09T21:22:10.974Z,1.30
2019-03-09T21:24:40.948Z,1.50
2019-03-09T21:27:11.009Z,2.20
2019-03-09T21:29:40.884Z,1.27
2019-03-09T21:32:10.631Z,1.60
2019-03-09T21:34:40.519Z,1.60
2019-03-09T21:37:10.377Z,1.50
2019-03-09T21:39:40.079Z,1.63
2019-03-09T21:42:10.014Z,1.73
2019-03-09T21:44:40.039Z,1.67
2019-03-09T21:47:09.917Z,1.67
2019-03-09T21:49:39.720Z,1.70
2019-03-09T21:52:09.663Z,1.67
2019-03-09T21:54:39.456Z,1.77
2019-03-09T21:57:10.273Z,1.70
2019-03-09T21:59:40.537Z,1.80
2019-03-09T22:02:10.803Z,1.80
2019-03-09T22:04:40.539Z,1.30
2019-03-09T22:07:10.422Z,1.33
2019-03-09T22:09:40.171Z,1.40
2019-03-09T22:12:09.915Z,1.60
2019-03-09T22:14:39.823Z,1.13
2019-03-09T22:17:09.513Z,1.37
2019-03-09T22:19:39.355Z,1.80
2019-03-09T22:22:09.068Z,1.23
2019-03-09T22:24:39.016Z,1.50
2019-03-09T22:27:08.700Z,1.10
2019-03-09T22:29:38.521Z,1.10
2019-03-09T22:32:08.410Z,1.10
2019-03-09T22:34:38.262Z,1.40
2019-03-09T22:37:08.411Z,0.93
2019-03-09T22:39:38.249Z,1.10
2019-03-09T22:42:08.478Z,1.00
2019-03-09T22:44:38.385Z,1.23
2019-03-09T22:47:11.934Z,1.00
2019-03-09T22:49:39.976Z,1.43
2019-03-09T22:52:10.957Z,1.20
2019-03-09T22:54:40.826Z,1.83
2019-03-09T22:57:10.666Z,1.20
2019-03-09T22:59:40.516Z,1.30
2019-03-09T23:02:11.273Z,1.20
2019-03-09T23:04:41.664Z,1.20
2019-03-09T23:07:11.535Z,1.07
2019-03-09T23:09:41.360Z,1.20
2019-03-09T23:12:11.373Z,1.53
2019-03-09T23:14:41.308Z,1.27
2019-03-09T23:17:11.143Z,0.90
2019-03-09T23:19:41.234Z,1.00
2019-03-09T23:22:11.066Z,1.47
2019-03-09T23:24:40.905Z,1.30
2019-03-09T23:27:10.973Z,1.10
2019-03-09T23:29:41.782Z,1.10
2019-03-09T23:32:11.621Z,1.30
2019-03-09T23:34:41.781Z,1.20
2019-03-09T23:37:11.776Z,1.20
2019-03-09T23:39:41.591Z,1.37
2019-03-09T23:42:11.800Z,1.23
2019-03-09T23:44:41.475Z,1.10
2019-03-09T23:47:11.497Z,1.30
2019-03-09T23:49:41.469Z,1.47
2019-03-09T23:52:11.345Z,0.90
2019-03-09T23:54:41.983Z,1.40
2019-03-09T23:57:12.531Z,0.97
2019-03-09T23:59:42.437Z,1.43
